createdAt,value
2023-04-10T00:02:27.718Z,42.60
2023-04-10T00:04:55.946Z,42.63
2023-04-10T00:07:24.003Z,41.63
2023-04-10T00:09:53.404Z,42.23
2023-04-10T00:12:21.616Z,43.80
2023-04-10T00:14:49.649Z,44.20
2023-04-10T00:17:17.701Z,46.07
2023-04-10T00:19:45.787Z,45.37
2023-04-10T00:22:13.776Z,48.77
2023-04-10T00:24:41.794Z,49.90
2023-04-10T00:27:11.300Z,49.20
2023-04-10T00:29:39.328Z,46.90
2023-04-10T00:32:07.376Z,48.50
2023-04-10T00:34:35.475Z,47.57
2023-04-10T00:37:03.496Z,45.93
2023-04-10T00:39:31.484Z,42.60
2023-04-10T00:41:59.733Z,43.10
2023-04-10T00:44:29.416Z,43.77
2023-04-10T00:46:57.530Z,42.00
2023-04-10T00:49:25.558Z,39.83
2023-04-10T00:51:53.527Z,39.83
2023-04-10T00:54:21.730Z,41.13
2023-04-10T00:56:51.109Z,39.30
2023-04-10T00:59:19.337Z,39.60
2023-04-10T01:01:48.791Z,41.53
2023-04-10T01:04:17.283Z,42.23
2023-04-10T01:06:56.592Z,44.37
2023-04-10T01:09:36.374Z,43.30
2023-04-10T01:12:16.468Z,41.83
2023-04-10T01:14:53.034Z,44.67
2023-04-10T01:17:30.793Z,45.80
2023-04-10T01:20:04.144Z,43.10
2023-04-10T01:22:37.459Z,44.23
2023-04-10T01:25:31.300Z,44.30
2023-04-10T01:28:12.773Z,44.60
2023-04-10T01:30:43.647Z,45.00
2023-04-10T01:33:17.090Z,42.83
2023-04-10T01:35:50.678Z,43.63
2023-04-10T01:38:20.674Z,46.00
2023-04-10T01:40:53.599Z,47.40
2023-04-10T01:43:23.350Z,46.73
2023-04-10T01:45:53.463Z,50.37
2023-04-10T01:48:21.930Z,48.50
2023-04-10T01:50:51.923Z,51.17
2023-04-10T01:53:20.298Z,47.97
2023-04-10T01:55:49.078Z,49.73
2023-04-10T01:58:17.587Z,50.43
2023-04-10T02:00:45.612Z,54.77
2023-04-10T02:03:15.218Z,54.30
2023-04-10T02:05:52.784Z,52.10
2023-04-10T02:08:28.974Z,52.37
2023-04-10T02:11:03.896Z,51.47
2023-04-10T02:13:34.504Z,49.70
2023-04-10T02:16:08.261Z,50.20
2023-04-10T02:18:39.620Z,50.03
2023-04-10T02:21:09.143Z,47.93
2023-04-10T02:23:38.347Z,49.53
2023-04-10T02:26:10.133Z,46.40
2023-04-10T02:28:39.392Z,46.80
2023-04-10T02:31:07.978Z,45.47
2023-04-10T02:33:37.535Z,47.90
2023-04-10T02:36:06.125Z,46.27
2023-04-10T02:38:34.249Z,46.93
2023-04-10T02:41:02.242Z,47.47
2023-04-10T02:43:30.361Z,47.97
2023-04-10T02:45:58.412Z,48.90
2023-04-10T02:48:26.537Z,45.83
2023-04-10T02:50:58.890Z,48.23
2023-04-10T02:53:27.099Z,46.20
2023-04-10T02:55:55.618Z,46.87
2023-04-10T02:58:23.642Z,46.43
2023-04-10T03:00:52.681Z,46.17
2023-04-10T03:03:21.322Z,45.57
2023-04-10T03:05:49.801Z,45.53
2023-04-10T03:08:19.287Z,47.53
2023-04-10T03:10:49.325Z,45.27
2023-04-10T03:13:18.119Z,47.57
2023-04-10T03:15:46.217Z,46.70
2023-04-10T03:18:14.279Z,46.57
2023-04-10T03:20:44.890Z,46.23
2023-04-10T03:23:13.378Z,45.03
2023-04-10T03:25:43.424Z,45.77
2023-04-10T03:28:11.459Z,44.90
2023-04-10T03:30:39.571Z,48.57
2023-04-10T03:33:07.582Z,46.03
2023-04-10T03:35:35.646Z,45.33
2023-04-10T03:38:03.609Z,48.87
2023-04-10T03:40:31.612Z,47.77
2023-04-10T03:43:00.989Z,46.77
2023-04-10T03:45:29.094Z,46.90
2023-04-10T03:47:57.131Z,47.77
2023-04-10T03:50:25.144Z,47.83
2023-04-10T03:52:53.462Z,45.07
2023-04-10T03:55:21.612Z,46.30
2023-04-10T03:57:50.273Z,45.73
2023-04-10T04:00:21.249Z,47.87
2023-04-10T04:02:50.695Z,44.87
2023-04-10T04:05:19.360Z,46.07
2023-04-10T04:07:47.340Z,45.27
2023-04-10T04:10:15.455Z,46.60
2023-04-10T04:12:43.461Z,44.97
2023-04-10T04:15:12.106Z,46.10
2023-04-10T04:17:41.477Z,47.30
2023-04-10T04:20:10.415Z,45.67
2023-04-10T04:22:38.422Z,47.47
2023-04-10T04:25:10.720Z,50.30
2023-04-10T04:27:39.036Z,44.80
2023-04-10T04:30:08.795Z,48.93
2023-04-10T04:32:36.887Z,47.77
2023-04-10T04:35:07.119Z,47.10
2023-04-10T04:37:35.120Z,45.60
2023-04-10T04:40:03.534Z,48.03
2023-04-10T04:42:31.639Z,48.17
2023-04-10T04:44:59.592Z,47.70
2023-04-10T04:47:27.592Z,47.47
2023-04-10T04:49:55.622Z,47.23
2023-04-10T04:52:25.656Z,44.60
2023-04-10T04:54:54.005Z,47.67
2023-04-10T04:57:22.263Z,45.97
2023-04-10T04:59:50.362Z,46.23
2023-04-10T05:02:18.966Z,46.13
2023-04-10T05:04:47.125Z,45.63
2023-04-10T05:07:15.654Z,46.30
2023-04-10T05:09:44.989Z,44.00
2023-04-10T05:12:12.972Z,44.07
2023-04-10T05:14:40.940Z,45.20
2023-04-10T05:17:08.989Z,43.70
2023-04-10T05:19:36.952Z,44.17
2023-04-10T05:22:04.913Z,43.57
2023-04-10T05:24:32.968Z,42.60
2023-04-10T05:27:02.375Z,43.53
2023-04-10T05:29:30.372Z,44.17
2023-04-10T05:31:58.412Z,44.10
2023-04-10T05:34:26.339Z,42.87
2023-04-10T05:36:56.178Z,43.97
2023-04-10T05:39:25.670Z,45.10
2023-04-10T05:41:53.635Z,44.87
2023-04-10T05:44:22.944Z,44.70
2023-04-10T05:46:51.020Z,43.17
2023-04-10T05:49:19.016Z,43.47
2023-04-10T05:51:50.260Z,44.80
2023-04-10T05:54:18.387Z,43.77
2023-04-10T05:56:46.876Z,44.47
2023-04-10T05:59:14.926Z,44.80
2023-04-10T06:01:44.933Z,44.60
2023-04-10T06:04:13.163Z,42.80
2023-04-10T06:06:41.959Z,43.70
2023-04-10T06:09:10.077Z,41.80
2023-04-10T06:11:38.039Z,42.13
2023-04-10T06:14:06.085Z,40.80
2023-04-10T06:16:34.133Z,44.17
2023-04-10T06:19:03.552Z,43.60
2023-04-10T06:21:31.807Z,43.33
2023-04-10T06:23:59.786Z,44.67
2023-04-10T06:26:27.802Z,46.10
2023-04-10T06:28:56.124Z,43.80
2023-04-10T06:31:24.389Z,46.90
2023-04-10T06:33:52.461Z,42.87
2023-04-10T06:36:21.815Z,45.23
2023-04-10T06:38:49.831Z,42.97
2023-04-10T06:41:17.782Z,43.67
2023-04-10T06:43:46.079Z,42.53
2023-04-10T06:46:14.394Z,43.10
2023-04-10T06:48:42.432Z,43.43
2023-04-10T06:51:10.396Z,43.70
2023-04-10T06:53:39.711Z,44.70
2023-04-10T06:56:08.220Z,45.30
2023-04-10T06:58:36.321Z,47.60
2023-04-10T07:01:04.820Z,47.27
2023-04-10T07:03:33.923Z,46.70
2023-04-10T07:06:03.388Z,46.90
2023-04-10T07:08:32.894Z,45.27
2023-04-10T07:11:02.212Z,44.93
2023-04-10T07:13:30.365Z,46.40
2023-04-10T07:15:58.355Z,50.07
2023-04-10T07:18:26.319Z,48.43
2023-04-10T07:20:54.303Z,46.07
2023-04-10T07:23:22.674Z,47.40
2023-04-10T07:25:52.114Z,48.57
2023-04-10T07:28:21.532Z,50.30
2023-04-10T07:30:49.593Z,49.40
2023-04-10T07:33:17.786Z,47.87
2023-04-10T07:35:45.994Z,46.83
2023-04-10T07:38:14.209Z,47.87
2023-04-10T07:40:42.226Z,47.57
2023-04-10T07:43:10.267Z,43.77
2023-04-10T07:45:39.659Z,44.53
2023-04-10T07:48:08.135Z,43.33
2023-04-10T07:50:36.537Z,44.03
2023-04-10T07:53:07.949Z,42.40
2023-04-10T07:55:39.259Z,42.80
2023-04-10T07:58:07.306Z,45.40
2023-04-10T08:00:35.899Z,43.33
2023-04-10T08:03:06.913Z,43.93
2023-04-10T08:05:35.486Z,43.63
2023-04-10T08:08:03.459Z,44.03
2023-04-10T08:10:31.455Z,44.13
2023-04-10T08:12:59.396Z,44.70
2023-04-10T08:15:27.403Z,44.37
2023-04-10T08:17:55.446Z,42.93
2023-04-10T08:20:24.847Z,45.27
2023-04-10T08:22:53.024Z,44.43
2023-04-10T08:25:21.046Z,44.47
2023-04-10T08:27:49.070Z,43.47
2023-04-10T08:30:17.026Z,43.10
2023-04-10T08:32:45.085Z,43.17
2023-04-10T08:35:13.058Z,45.70
2023-04-10T08:37:43.148Z,41.97
2023-04-10T08:40:15.913Z,45.17
2023-04-10T08:42:43.954Z,43.87
2023-04-10T08:45:12.400Z,43.67
2023-04-10T08:47:42.174Z,45.73
2023-04-10T08:50:14.177Z,44.40
2023-04-10T08:52:46.384Z,44.37
2023-04-10T08:55:15.670Z,43.10
2023-04-10T08:57:50.936Z,42.67
2023-04-10T09:00:23.551Z,42.27
2023-04-10T09:02:57.946Z,43.47
2023-04-10T09:05:27.879Z,43.07
2023-04-10T09:07:57.217Z,41.27
2023-04-10T09:10:25.346Z,45.63
2023-04-10T09:12:53.715Z,44.20
2023-04-10T09:15:21.695Z,43.23
2023-04-10T09:18:00.747Z,48.27
2023-04-10T09:20:30.717Z,44.57
2023-04-10T09:23:00.154Z,44.33
2023-04-10T09:25:36.540Z,42.67
2023-04-10T09:28:06.960Z,41.43
2023-04-10T09:30:40.115Z,41.43
2023-04-10T09:33:24.957Z,40.83
2023-04-10T09:35:52.967Z,41.47
2023-04-10T09:38:23.057Z,41.43
2023-04-10T09:40:53.582Z,37.97
2023-04-10T09:43:24.328Z,36.70
2023-04-10T09:45:54.161Z,38.43
2023-04-10T09:48:23.000Z,39.60
2023-04-10T09:50:51.909Z,39.43
2023-04-10T09:53:22.547Z,39.97
2023-04-10T09:55:51.795Z,37.53
2023-04-10T09:58:20.005Z,38.70
2023-04-10T10:00:49.089Z,36.80
2023-04-10T10:03:18.661Z,38.23
2023-04-10T10:05:49.406Z,34.33
2023-04-10T10:08:18.193Z,34.97
2023-04-10T10:10:49.562Z,35.17
2023-04-10T10:13:22.352Z,36.87
2023-04-10T10:15:58.588Z,36.60
2023-04-10T10:18:37.781Z,33.07
2023-04-10T10:21:07.021Z,31.83
2023-04-10T10:23:35.725Z,31.57
2023-04-10T10:26:07.000Z,31.63
2023-04-10T10:28:36.768Z,32.43
2023-04-10T10:31:05.701Z,30.33
2023-04-10T10:33:37.033Z,31.57
2023-04-10T10:36:06.033Z,31.37
2023-04-10T10:38:34.700Z,32.30
2023-04-10T10:41:10.496Z,32.13
2023-04-10T10:43:48.149Z,35.07
2023-04-10T10:46:22.891Z,38.13
2023-04-10T10:48:58.504Z,34.80
2023-04-10T10:51:44.381Z,32.13
2023-04-10T10:54:29.855Z,34.47
2023-04-10T10:56:59.263Z,31.87
2023-04-10T11:00:00.111Z,31.47
2023-04-10T11:02:28.223Z,32.47
2023-04-10T11:04:56.297Z,33.37
2023-04-10T11:08:02.983Z,31.57
2023-04-10T11:11:04.084Z,31.67
2023-04-10T11:13:34.164Z,34.27
2023-04-10T11:16:04.010Z,35.90
2023-04-10T11:19:13.363Z,37.80
2023-04-10T11:22:02.493Z,36.73
2023-04-10T11:24:31.340Z,30.70
2023-04-10T11:26:59.362Z,30.47
2023-04-10T11:29:37.882Z,32.07
2023-04-10T11:32:06.206Z,39.17
2023-04-10T11:34:34.400Z,33.63
2023-04-10T11:37:03.903Z,34.00
2023-04-10T11:39:32.256Z,31.27
2023-04-10T11:42:01.707Z,31.07
2023-04-10T11:44:31.968Z,29.03
2023-04-10T11:47:01.479Z,27.85
2023-04-10T11:49:32.666Z,27.65
2023-04-10T11:52:01.128Z,26.07
2023-04-10T11:54:30.294Z,28.17
2023-04-10T11:57:03.351Z,28.33
2023-04-10T11:59:32.581Z,26.38
2023-04-10T12:02:09.568Z,27.55
2023-04-10T12:04:38.462Z,27.83
2023-04-10T12:07:06.566Z,27.33
2023-04-10T12:09:34.652Z,27.98
2023-04-10T12:12:04.251Z,27.05
2023-04-10T12:14:34.018Z,26.47
2023-04-10T12:17:03.394Z,28.03
2023-04-10T12:19:34.048Z,26.87
2023-04-10T12:22:02.849Z,27.23
2023-04-10T12:24:44.314Z,26.08
2023-04-10T12:27:18.550Z,25.00
2023-04-10T12:29:47.086Z,25.20
2023-04-10T12:32:15.435Z,26.17
2023-04-10T12:34:51.320Z,25.58
2023-04-10T12:37:19.429Z,26.45
2023-04-10T12:39:47.427Z,27.67
2023-04-10T12:42:16.751Z,27.33
2023-04-10T12:44:55.143Z,27.48
2023-04-10T12:47:24.379Z,27.25
2023-04-10T12:50:07.899Z,27.80
2023-04-10T12:52:36.456Z,26.42
2023-04-10T12:55:12.390Z,28.00
2023-04-10T12:57:41.430Z,26.40
2023-04-10T13:00:11.155Z,27.38
2023-04-10T13:02:39.815Z,27.27
2023-04-10T13:05:10.600Z,25.38
2023-04-10T13:07:39.141Z,24.42
2023-04-10T13:10:08.278Z,22.40
2023-04-10T13:12:38.067Z,22.52
2023-04-10T13:15:07.692Z,20.17
2023-04-10T13:17:36.225Z,20.38
2023-04-10T13:20:04.711Z,20.67
2023-04-10T13:22:34.036Z,23.20
2023-04-10T13:25:03.752Z,25.45
2023-04-10T13:27:31.818Z,23.85
2023-04-10T13:29:59.847Z,21.92
2023-04-10T13:32:27.862Z,23.88
2023-04-10T13:34:57.176Z,23.48
2023-04-10T13:37:26.651Z,23.80
2023-04-10T13:39:56.696Z,23.90
2023-04-10T13:42:24.687Z,23.23
2023-04-10T13:44:52.698Z,24.27
2023-04-10T13:47:20.763Z,22.92
2023-04-10T13:49:48.699Z,23.63
2023-04-10T13:52:16.661Z,24.70
2023-04-10T13:54:44.663Z,23.60
2023-04-10T13:57:14.016Z,24.05
2023-04-10T13:59:42.008Z,23.60
2023-04-10T14:02:10.407Z,21.48
2023-04-10T14:04:38.520Z,21.45
2023-04-10T14:07:06.524Z,22.20
2023-04-10T14:09:34.481Z,23.05
2023-04-10T14:12:03.259Z,21.70
2023-04-10T14:14:32.574Z,23.20
2023-04-10T14:17:00.667Z,23.20
2023-04-10T14:19:28.766Z,21.80
2023-04-10T14:21:56.778Z,20.30
2023-04-10T14:24:24.773Z,19.92
2023-04-10T14:26:58.009Z,20.20
2023-04-10T14:29:36.044Z,20.17
2023-04-10T14:32:08.617Z,20.40
2023-04-10T14:34:36.606Z,21.95
2023-04-10T14:37:04.654Z,20.95
2023-04-10T14:39:33.878Z,20.45
2023-04-10T14:42:03.236Z,22.98
2023-04-10T14:44:31.527Z,20.88
2023-04-10T14:46:59.542Z,21.95
2023-04-10T14:49:28.935Z,21.15
2023-04-10T14:51:56.924Z,23.10
2023-04-10T14:54:24.943Z,22.15
2023-04-10T14:56:52.951Z,20.75
2023-04-10T14:59:21.054Z,22.00
2023-04-10T15:01:49.188Z,22.98
2023-04-10T15:04:17.407Z,22.08
2023-04-10T15:06:46.827Z,22.55
2023-04-10T15:09:15.377Z,22.25
2023-04-10T15:11:43.380Z,21.45
2023-04-10T15:14:12.220Z,22.40
2023-04-10T15:16:40.476Z,22.63
2023-04-10T15:19:08.585Z,22.67
2023-04-10T15:21:36.586Z,24.45
2023-04-10T15:24:06.151Z,23.20
2023-04-10T15:26:34.569Z,20.95
2023-04-10T15:29:03.044Z,21.42
2023-04-10T15:31:31.042Z,23.15
2023-04-10T15:33:59.031Z,23.00
2023-04-10T15:36:27.909Z,21.83
2023-04-10T15:38:55.914Z,22.63
2023-04-10T15:41:25.295Z,23.05
2023-04-10T15:43:53.603Z,22.60
2023-04-10T15:46:21.847Z,22.25
2023-04-10T15:48:49.927Z,22.63
2023-04-10T15:51:17.972Z,21.38
2023-04-10T15:53:45.940Z,21.77
2023-04-10T15:56:16.053Z,21.15
2023-04-10T15:58:45.471Z,19.75
2023-04-10T16:01:13.476Z,19.98
2023-04-10T16:03:41.604Z,21.35
2023-04-10T16:06:10.041Z,21.10
2023-04-10T16:08:38.104Z,23.02
2023-04-10T16:11:06.568Z,22.92
2023-04-10T16:13:34.740Z,12.68
2023-04-10T16:16:04.983Z,9.73
2023-04-10T16:18:32.972Z,18.55
2023-04-10T16:21:00.901Z,26.40
2023-04-10T16:23:28.933Z,26.38
2023-04-10T16:25:56.924Z,24.83
2023-04-10T16:28:26.026Z,24.23
2023-04-10T16:30:54.072Z,28.87
2023-04-10T16:33:23.390Z,29.63
2023-04-10T16:35:51.416Z,28.60
2023-04-10T16:38:19.372Z,27.97
2023-04-10T16:40:47.351Z,28.10
2023-04-10T16:43:15.361Z,30.37
2023-04-10T16:45:43.487Z,29.60
2023-04-10T16:48:11.533Z,30.23
2023-04-10T16:50:40.940Z,28.50
2023-04-10T16:53:08.920Z,33.40
2023-04-10T16:55:36.918Z,46.00
2023-04-10T16:58:04.933Z,41.93
2023-04-10T17:00:32.982Z,41.07
2023-04-10T17:03:01.228Z,44.43
2023-04-10T17:05:35.518Z,40.97
2023-04-10T17:08:05.337Z,37.60
2023-04-10T17:10:33.282Z,35.50
2023-04-10T17:13:01.296Z,36.03
2023-04-10T17:15:29.229Z,35.27
2023-04-10T17:17:57.221Z,33.80
2023-04-10T17:20:25.445Z,33.23
2023-04-10T17:22:53.795Z,28.20
2023-04-10T17:25:23.172Z,29.30
2023-04-10T17:27:51.174Z,31.57
2023-04-10T17:30:19.120Z,34.83
2023-04-10T17:32:49.079Z,33.27
2023-04-10T17:35:17.336Z,31.77
2023-04-10T17:37:45.315Z,30.40
2023-04-10T17:40:13.979Z,30.10
2023-04-10T17:42:43.300Z,30.43
2023-04-10T17:45:12.277Z,31.57
2023-04-10T17:47:40.545Z,31.87
2023-04-10T17:50:10.269Z,32.53
2023-04-10T17:52:38.423Z,31.43
2023-04-10T17:55:07.278Z,32.23
2023-04-10T17:57:35.245Z,36.03
2023-04-10T18:00:08.790Z,34.90
2023-04-10T18:02:36.899Z,35.90
2023-04-10T18:05:06.554Z,37.90
2023-04-10T18:07:34.533Z,34.53
2023-04-10T18:10:02.504Z,36.23
2023-04-10T18:12:30.548Z,36.47
2023-04-10T18:14:58.533Z,36.37
2023-04-10T18:17:27.947Z,37.80
2023-04-10T18:19:57.554Z,35.50
2023-04-10T18:22:25.674Z,33.03
2023-04-10T18:24:53.651Z,35.20
2023-04-10T18:27:21.607Z,36.57
2023-04-10T18:29:49.571Z,38.27
2023-04-10T18:32:17.558Z,38.40
2023-04-10T18:34:46.889Z,37.87
2023-04-10T18:37:14.868Z,36.17
2023-04-10T18:39:42.936Z,36.87
2023-04-10T18:42:11.646Z,37.07
2023-04-10T18:44:39.659Z,38.93
2023-04-10T18:47:07.770Z,40.00
2023-04-10T18:49:35.859Z,39.80
2023-04-10T18:52:05.369Z,38.53
2023-04-10T18:54:34.895Z,39.23
2023-04-10T18:57:03.241Z,37.57
2023-04-10T18:59:32.014Z,38.50
2023-04-10T19:02:00.124Z,40.07
2023-04-10T19:04:28.274Z,38.10
2023-04-10T19:06:56.398Z,37.63
2023-04-10T19:09:25.900Z,37.77
2023-04-10T19:11:53.856Z,35.97
2023-04-10T19:14:21.860Z,37.53
2023-04-10T19:16:49.838Z,39.10
2023-04-10T19:19:17.830Z,39.27
2023-04-10T19:21:45.793Z,40.70
2023-04-10T19:24:13.894Z,41.43
2023-04-10T19:26:43.237Z,41.50
2023-04-10T19:29:11.477Z,38.90
2023-04-10T19:31:39.568Z,37.07
2023-04-10T19:34:11.221Z,36.13
2023-04-10T19:36:39.406Z,35.80
2023-04-10T19:39:07.388Z,33.40
2023-04-10T19:41:37.116Z,33.70
2023-04-10T19:44:06.456Z,37.37
2023-04-10T19:46:34.437Z,37.60
2023-04-10T19:49:02.521Z,41.00
2023-04-10T19:51:30.535Z,41.03
2023-04-10T19:53:58.728Z,42.53
2023-04-10T19:56:28.612Z,45.93
2023-04-10T19:58:56.873Z,43.93
2023-04-10T20:01:26.563Z,45.63
2023-04-10T20:03:54.689Z,44.90
2023-04-10T20:06:22.954Z,43.73
2023-04-10T20:08:50.956Z,45.30
2023-04-10T20:11:18.951Z,46.07
2023-04-10T20:13:46.946Z,44.40
2023-04-10T20:16:14.999Z,40.37
2023-04-10T20:18:44.312Z,40.53
2023-04-10T20:21:12.318Z,41.40
2023-04-10T20:23:40.365Z,40.33
2023-04-10T20:26:08.646Z,40.00
2023-04-10T20:28:36.607Z,37.93
2023-04-10T20:31:04.763Z,37.87
2023-04-10T20:33:32.951Z,39.70
2023-04-10T20:36:02.308Z,37.10
2023-04-10T20:38:30.353Z,39.03
2023-04-10T20:40:58.375Z,45.27
2023-04-10T20:43:26.609Z,44.20
2023-04-10T20:45:54.596Z,41.67
2023-04-10T20:48:22.621Z,43.30
2023-04-10T20:50:50.762Z,43.63
2023-04-10T20:53:20.081Z,42.93
2023-04-10T20:55:48.078Z,44.80
2023-04-10T20:58:16.024Z,45.27
2023-04-10T21:00:44.075Z,47.17
2023-04-10T21:03:12.380Z,49.10
2023-04-10T21:05:41.482Z,44.63
2023-04-10T21:08:09.529Z,44.70
2023-04-10T21:10:43.991Z,42.87
2023-04-10T21:13:13.147Z,42.80
2023-04-10T21:15:41.207Z,43.73
2023-04-10T21:18:09.605Z,43.77
2023-04-10T21:20:37.647Z,42.00
2023-04-10T21:23:05.816Z,43.10
2023-04-10T21:25:34.569Z,44.97
2023-04-10T21:28:03.948Z,46.57
2023-04-10T21:30:31.969Z,45.07
2023-04-10T21:32:59.984Z,42.83
2023-04-10T21:35:28.232Z,41.77
2023-04-10T21:37:59.394Z,41.50
2023-04-10T21:40:33.880Z,41.00
2023-04-10T21:43:03.283Z,43.67
2023-04-10T21:45:31.312Z,45.13
2023-04-10T21:48:00.546Z,45.60
2023-04-10T21:50:28.619Z,45.80
2023-04-10T21:52:56.794Z,45.10
2023-04-10T21:55:24.820Z,45.67
2023-04-10T21:57:52.785Z,46.27
2023-04-10T22:00:23.053Z,45.43
2023-04-10T22:02:51.566Z,47.73
2023-04-10T22:05:19.871Z,47.90
2023-04-10T22:07:47.895Z,45.23
2023-04-10T22:10:15.930Z,46.87
2023-04-10T22:12:45.968Z,48.10
2023-04-10T22:15:16.147Z,48.53
2023-04-10T22:17:45.700Z,47.60
2023-04-10T22:20:13.859Z,45.30
2023-04-10T22:22:41.881Z,46.80
2023-04-10T22:25:10.334Z,48.03
2023-04-10T22:27:38.284Z,49.43
2023-04-10T22:30:07.580Z,48.37
2023-04-10T22:32:35.817Z,48.73
2023-04-10T22:35:06.011Z,51.33
2023-04-10T22:37:34.012Z,50.50
2023-04-10T22:40:01.999Z,51.97
2023-04-10T22:42:31.841Z,52.50
2023-04-10T22:45:00.199Z,52.73
2023-04-10T22:47:28.175Z,53.27
2023-04-10T22:49:56.147Z,52.30
2023-04-10T22:52:25.531Z,53.03
2023-04-10T22:54:53.499Z,51.43
2023-04-10T22:57:21.487Z,54.83
2023-04-10T22:59:49.645Z,55.67
2023-04-10T23:02:17.771Z,56.13
2023-04-10T23:04:46.029Z,56.13
2023-04-10T23:07:14.140Z,55.03
2023-04-10T23:09:43.490Z,56.83
2023-04-10T23:12:11.483Z,55.47
2023-04-10T23:14:39.456Z,54.67
2023-04-10T23:17:07.475Z,53.13
2023-04-10T23:19:35.451Z,52.07
2023-04-10T23:22:03.429Z,51.97
2023-04-10T23:24:31.407Z,52.27
2023-04-10T23:27:00.753Z,50.83
2023-04-10T23:29:28.708Z,51.37
2023-04-10T23:31:56.690Z,51.03
2023-04-10T23:34:26.622Z,50.70
2023-04-10T23:36:54.647Z,49.03
2023-04-10T23:39:22.663Z,49.50
2023-04-10T23:41:50.674Z,48.20
2023-04-10T23:44:19.991Z,47.47
2023-04-10T23:46:49.417Z,47.53
2023-04-10T23:49:17.462Z,47.90
2023-04-10T23:51:46.047Z,50.27
2023-04-10T23:54:14.146Z,50.40
2023-04-10T23:56:42.294Z,47.47
2023-04-10T23:59:10.335Z,47.87
